Time,TemperatureF,DewpointF,PressureIn,WindDirection,WindDirectionDegrees,WindSpeedMPH,WindSpeedGustMPH,Humidity,HourlyPrecipIn,Conditions,Clouds,dailyrainin,SoftwareType,DateUTC
2013-07-23 00:05:00,79.4,61.8,29.70,WSW,258,0.0,13.0,55,0.00,,,0.00,Wunderground v.1.15,2013-07-23 07:05:00,
2013-07-23 00:15:00,79.2,61.6,29.68,WSW,258,0.0,13.0,55,0.00,,,0.00,Wunderground v.1.15,2013-07-23 07:15:00,
2013-07-23 00:20:00,79.4,61.8,29.68,WSW,258,0.0,13.0,55,0.00,,,0.00,Wunderground v.1.15,2013-07-23 07:20:00,
2013-07-23 00:30:00,79.6,62.5,29.68,WSW,258,0.0,13.0,56,0.00,,,0.00,Wunderground v.1.15,2013-07-23 07:30:00,
2013-07-23 00:40:00,79.4,62.3,29.68,WSW,258,0.0,13.0,56,0.00,,,0.00,Wunderground v.1.15,2013-07-23 07:40:00,
2013-07-23 00:50:00,78.8,62.3,29.68,WSW,258,0.0,13.0,57,0.00,,,0.00,Wunderground v.1.15,2013-07-23 07:50:00,
2013-07-23 00:55:00,78.6,62.1,29.68,WSW,257,0.0,13.0,57,0.00,,,0.00,Wunderground v.1.15,2013-07-23 07:55:00,
2013-07-23 01:05:00,78.5,63.0,29.68,WSW,257,0.0,13.0,59,0.00,,,0.00,Wunderground v.1.15,2013-07-23 08:05:00,
2013-07-23 01:15:00,78.8,63.3,29.69,WSW,257,0.0,13.0,59,0.00,,,0.00,Wunderground v.1.15,2013-07-23 08:15:00,
2013-07-23 01:25:00,78.5,63.5,29.69,WSW,257,0.0,13.0,60,0.00,,,0.00,Wunderground v.1.15,2013-07-23 08:25:00,
2013-07-23 01:35:00,78.1,63.6,29.69,WSW,257,0.0,13.0,61,0.00,,,0.00,Wunderground v.1.15,2013-07-23 08:35:00,
2013-07-23 01:40:00,77.9,63.8,29.69,WSW,257,0.0,13.0,62,0.00,,,0.00,Wunderground v.1.15,2013-07-23 08:40:00,
2013-07-23 01:50:00,77.6,64.0,29.69,WSW,257,0.0,13.0,63,0.00,,,0.00,Wunderground v.1.15,2013-07-23 08:50:00,
2013-07-23 02:00:00,77.4,63.8,29.68,WSW,257,0.0,13.0,63,0.00,,,0.00,Wunderground v.1.15,2013-07-23 09:00:00,
2013-07-23 02:10:00,77.2,63.6,29.68,WSW,257,0.0,13.0,63,0.00,,,0.00,Wunderground v.1.15,2013-07-23 09:10:00,
2013-07-23 02:15:00,77.0,63.9,29.69,WSW,257,0.0,13.0,64,0.00,,,0.00,Wunderground v.1.15,2013-07-23 09:15:00,
2013-07-23 02:25:00,76.7,64.0,29.69,WSW,257,0.0,13.0,65,0.00,,,0.00,Wunderground v.1.15,2013-07-23 09:25:00,
2013-07-23 02:30:00,76.3,63.7,29.69,WSW,257,0.0,13.0,65,0.00,,,0.00,Wunderground v.1.15,2013-07-23 09:30:00,
2013-07-23 02:40:00,76.0,63.8,29.69,WSW,257,0.0,13.0,66,0.00,,,0.00,Wunderground v.1.15,2013-07-23 09:40:00,
2013-07-23 02:50:00,75.8,63.6,29.69,WSW,257,0.0,13.0,66,0.00,,,0.00,Wunderground v.1.15,2013-07-23 09:50:00,
2013-07-23 02:55:00,76.0,63.8,29.69,WSW,257,0.0,13.0,66,0.00,,,0.00,Wunderground v.1.15,2013-07-23 09:55:00,
2013-07-23 03:05:00,75.6,63.9,29.69,WSW,257,0.0,13.0,67,0.00,,,0.00,Wunderground v.1.15,2013-07-23 10:05:00,
2013-07-23 03:10:00,75.6,63.9,29.69,WSW,257,0.0,13.0,67,0.00,,,0.00,Wunderground v.1.15,2013-07-23 10:10:00,
2013-07-23 03:20:00,76.1,63.9,29.69,WSW,257,0.0,13.0,66,0.00,,,0.00,Wunderground v.1.15,2013-07-23 10:20:00,
2013-07-23 03:30:00,76.7,62.2,29.69,WSW,257,0.0,13.0,61,0.00,,,0.00,Wunderground v.1.15,2013-07-23 10:30:00,
2013-07-23 03:35:00,76.5,61.6,29.69,WSW,257,0.0,13.0,60,0.00,,,0.00,Wunderground v.1.15,2013-07-23 10:35:00,
2013-07-23 03:45:00,76.3,59.9,29.70,WSW,257,0.0,13.0,57,0.00,,,0.00,Wunderground v.1.15,2013-07-23 10:45:00,
2013-07-23 03:50:00,76.3,59.4,29.70,WSW,257,0.0,13.0,56,0.00,,,0.00,Wunderground v.1.15,2013-07-23 10:50:00,
2013-07-23 04:00:00,76.1,60.7,29.70,WSW,257,0.0,13.0,59,0.00,,,0.00,Wunderground v.1.15,2013-07-23 11:00:00,
2013-07-23 04:10:00,75.6,61.2,29.70,WSW,258,0.0,13.0,61,0.00,,,0.00,Wunderground v.1.15,2013-07-23 11:10:00,
2013-07-23 04:15:00,75.3,61.8,29.69,WSW,258,0.0,13.0,63,0.00,,,0.00,Wunderground v.1.15,2013-07-23 11:15:00,
2013-07-23 04:25:00,74.9,61.9,29.69,WSW,258,0.0,13.0,64,0.00,,,0.00,Wunderground v.1.15,2013-07-23 11:25:00,
2013-07-23 04:30:00,74.9,63.6,29.70,WSW,258,0.0,13.0,68,0.00,,,0.00,Wunderground v.1.15,2013-07-23 11:30:00,
2013-07-23 04:40:00,74.4,63.6,29.70,WSW,258,0.0,13.0,69,0.00,,,0.00,Wunderground v.1.15,2013-07-23 11:40:00,
2013-07-23 04:50:00,74.6,62.5,29.70,WSW,258,0.0,13.0,66,0.00,,,0.00,Wunderground v.1.15,2013-07-23 11:50:00,
2013-07-23 04:55:00,74.6,62.1,29.70,WSW,258,0.0,13.0,65,0.00,,,0.00,Wunderground v.1.15,2013-07-23 11:55:00,
2013-07-23 05:05:00,74.6,62.5,29.71,WSW,258,0.0,13.0,66,0.00,,,0.00,Wunderground v.1.15,2013-07-23 12:05:00,
2013-07-23 05:10:00,74.4,63.6,29.71,WSW,258,0.0,13.0,69,0.00,,,0.00,Wunderground v.1.15,2013-07-23 12:10:00,
2013-07-23 05:20:00,74.2,61.7,29.71,WSW,258,0.0,13.0,65,0.00,,,0.00,Wunderground v.1.15,2013-07-23 12:20:00,
2013-07-23 05:30:00,74.4,61.4,29.71,WSW,258,0.0,13.0,64,0.00,,,0.00,Wunderground v.1.15,2013-07-23 12:30:00,
2013-07-23 05:40:00,74.4,61.4,29.71,WSW,258,0.0,13.0,64,0.00,,,0.00,Wunderground v.1.15,2013-07-23 12:40:00,
2013-07-23 05:50:00,74.4,61.9,29.72,WSW,258,0.0,13.0,65,0.00,,,0.00,Wunderground v.1.15,2013-07-23 12:50:00,
2013-07-23 05:55:00,74.4,61.9,29.72,WSW,258,0.0,13.0,65,0.00,,,0.00,Wunderground v.1.15,2013-07-23 12:55:00,
2013-07-23 06:05:00,74.6,62.1,29.72,WSW,258,0.0,13.0,65,0.00,,,0.00,Wunderground v.1.15,2013-07-23 13:05:00,
2013-07-23 06:15:00,75.1,62.1,29.73,WSW,258,0.0,13.0,64,0.00,,,0.00,Wunderground v.1.15,2013-07-23 13:15:00,
2013-07-23 06:25:00,75.8,61.8,29.73,WSW,258,0.0,13.0,62,0.00,,,0.00,Wunderground v.1.15,2013-07-23 13:25:00,
2013-07-23 06:30:00,76.1,62.1,29.73,WSW,258,0.0,13.0,62,0.00,,,0.00,Wunderground v.1.15,2013-07-23 13:30:00,
2013-07-23 06:40:00,76.7,62.7,29.73,WSW,258,0.0,13.0,62,0.00,,,0.00,Wunderground v.1.15,2013-07-23 13:40:00,
2013-07-23 06:50:00,77.7,61.7,29.73,WSW,257,0.0,13.0,58,0.00,,,0.00,Wunderground v.1.15,2013-07-23 13:50:00,
2013-07-23 07:00:00,79.4,60.2,29.74,WSW,258,0.0,13.0,52,0.00,,,0.00,Wunderground v.1.15,2013-07-23 14:00:00,
2013-07-23 07:05:00,80.1,59.8,29.74,WSW,258,0.0,13.0,50,0.00,,,0.00,Wunderground v.1.15,2013-07-23 14:05:00,
2013-07-23 07:15:00,81.4,60.4,29.74,WSW,258,0.0,13.0,49,0.00,,,0.00,Wunderground v.1.15,2013-07-23 14:15:00,
2013-07-23 07:25:00,82.4,60.7,29.74,WSW,239,0.0,13.0,48,0.00,,,0.00,Wunderground v.1.15,2013-07-23 14:25:00,
2013-07-23 07:35:00,83.0,60.1,29.74,SW,230,0.0,13.0,46,0.00,,,0.00,Wunderground v.1.15,2013-07-23 14:35:00,
2013-07-23 07:45:00,84.0,59.1,29.74,SSW,198,0.0,13.0,43,0.00,,,0.00,Wunderground v.1.15,2013-07-23 14:45:00,
2013-07-23 07:50:00,85.3,59.6,29.74,SE,138,0.0,13.0,42,0.00,,,0.00,Wunderground v.1.15,2013-07-23 14:50:00,
2013-07-23 08:00:00,85.9,60.1,29.74,SE,136,0.0,13.0,42,0.00,,,0.00,Wunderground v.1.15,2013-07-23 15:00:00,
2013-07-23 08:10:00,86.3,59.1,29.74,SE,138,0.0,13.0,40,0.00,,,0.00,Wunderground v.1.15,2013-07-23 15:10:00,
2013-07-23 08:15:00,86.3,58.4,29.74,South,172,1.0,13.0,39,0.00,,,0.00,Wunderground v.1.15,2013-07-23 15:15:00,
2013-07-23 08:25:00,86.7,59.5,29.74,SSE,157,1.0,13.0,40,0.00,,,0.00,Wunderground v.1.15,2013-07-23 15:25:00,
2013-07-23 08:35:00,88.2,59.4,29.73,NW,326,0.0,2.0,38,0.00,,,0.00,Wunderground v.1.15,2013-07-23 15:35:00,
2013-07-23 08:40:00,88.6,59.0,29.73,NNW,335,1.0,1.0,37,0.00,,,0.00,Wunderground v.1.15,2013-07-23 15:40:00,
2013-07-23 08:50:00,88.2,58.6,29.73,NW,311,2.0,2.0,37,0.00,,,0.00,Wunderground v.1.15,2013-07-23 15:50:00,
2013-07-23 09:00:00,87.8,59.8,29.73,South,171,2.0,13.0,39,0.00,,,0.00,Wunderground v.1.15,2013-07-23 16:00:00,
2013-07-23 09:05:00,87.6,58.9,29.73,NNW,337,4.0,13.0,38,0.00,,,0.00,Wunderground v.1.15,2013-07-23 16:05:00,
2013-07-23 09:15:00,88.6,59.0,29.73,North,0,2.0,13.0,37,0.00,,,0.00,Wunderground v.1.15,2013-07-23 16:15:00,
2013-07-23 09:20:00,89.3,59.6,29.73,NW,325,2.0,13.0,37,0.00,,,0.00,Wunderground v.1.15,2013-07-23 16:20:00,
2013-07-23 09:30:00,89.9,57.8,29.73,NNW,344,2.0,13.0,34,0.00,,,0.00,Wunderground v.1.15,2013-07-23 16:30:00,
2013-07-23 09:40:00,89.7,59.2,29.73,NW,318,4.0,13.0,36,0.00,,,0.00,Wunderground v.1.15,2013-07-23 16:40:00,
2013-07-23 09:45:00,89.3,58.8,29.73,NW,320,4.0,13.0,36,0.00,,,0.00,Wunderground v.1.15,2013-07-23 16:45:00,
2013-07-23 09:55:00,89.9,59.4,29.73,NW,312,4.0,13.0,36,0.00,,,0.00,Wunderground v.1.15,2013-07-23 16:55:00,
2013-07-23 10:00:00,90.5,57.5,29.72,NW,309,3.0,13.0,33,0.00,,,0.00,Wunderground v.1.15,2013-07-23 17:00:00,
2013-07-23 10:10:00,90.3,59.7,29.72,WNW,294,4.0,4.0,36,0.00,,,0.00,Wunderground v.1.15,2013-07-23 17:10:00,
2013-07-23 10:20:00,90.1,59.5,29.72,WSW,254,5.0,13.0,36,0.00,,,0.00,Wunderground v.1.15,2013-07-23 17:20:00,
2013-07-23 10:25:00,90.1,60.3,29.72,West,270,3.0,13.0,37,0.00,,,0.00,Wunderground v.1.15,2013-07-23 17:25:00,
2013-07-23 10:35:00,90.3,59.7,29.72,WSW,247,3.0,13.0,36,0.00,,,0.00,Wunderground v.1.15,2013-07-23 17:35:00,
2013-07-23 10:40:00,91.0,59.5,29.72,NNW,342,3.0,13.0,35,0.00,,,0.00,Wunderground v.1.15,2013-07-23 17:40:00,
2013-07-23 10:50:00,91.4,59.1,29.72,North,354,4.0,4.0,34,0.00,,,0.00,Wunderground v.1.15,2013-07-23 17:50:00,
2013-07-23 11:04:00,91.8,59.4,29.71,North,354,5.0,7.0,34,0.00,,,0.00,Wunderground v.1.15,2013-07-23 18:04:00,
2013-07-23 11:15:00,92.5,59.2,29.71,NNW,339,6.0,13.0,33,0.00,,,0.00,Wunderground v.1.15,2013-07-23 18:15:00,
2013-07-23 11:25:00,92.9,57.8,29.71,NNW,333,4.0,6.0,31,0.00,,,0.00,Wunderground v.1.15,2013-07-23 18:25:00,
2013-07-23 11:35:00,92.7,60.2,29.70,NW,325,5.0,13.0,34,0.00,,,0.00,Wunderground v.1.15,2013-07-23 18:35:00,
2013-07-23 11:40:00,92.5,59.2,29.70,NW,306,7.0,7.0,33,0.00,,,0.00,Wunderground v.1.15,2013-07-23 18:40:00,
2013-07-23 11:50:00,92.9,59.6,29.70,NW,319,5.0,13.0,33,0.00,,,0.00,Wunderground v.1.15,2013-07-23 18:50:00,
2013-07-23 12:04:00,94.3,59.0,29.69,NNW,330,6.0,13.0,31,0.00,,,0.00,Wunderground v.1.15,2013-07-23 19:04:00,
2013-07-23 12:20:00,93.6,58.4,29.68,NW,309,5.0,13.0,31,0.00,,,0.00,Wunderground v.1.15,2013-07-23 19:20:00,
2013-07-23 12:25:00,94.0,58.8,29.68,WNW,302,6.0,13.0,31,0.00,,,0.00,Wunderground v.1.15,2013-07-23 19:25:00,
2013-07-23 12:35:00,94.5,57.3,29.67,NW,306,4.0,13.0,29,0.00,,,0.00,Wunderground v.1.15,2013-07-23 19:35:00,
2013-07-23 12:45:00,94.5,58.3,29.67,SW,227,5.0,13.0,30,0.00,,,0.00,Wunderground v.1.15,2013-07-23 19:45:00,
2013-07-23 12:55:00,95.9,57.6,29.67,NNW,337,3.0,13.0,28,0.00,,,0.00,Wunderground v.1.15,2013-07-23 19:55:00,
2013-07-23 13:00:00,95.4,58.1,29.66,NW,319,6.0,6.0,29,0.00,,,0.00,Wunderground v.1.15,2013-07-23 20:00:00,
2013-07-23 13:10:00,95.9,57.6,29.66,NW,306,4.0,4.0,28,0.00,,,0.00,Wunderground v.1.15,2013-07-23 20:10:00,
2013-07-23 13:20:00,95.6,59.2,29.66,North,354,6.0,13.0,30,0.00,,,0.00,Wunderground v.1.15,2013-07-23 20:20:00,
2013-07-23 13:30:00,95.1,57.8,29.66,NNW,336,7.0,7.0,29,0.00,,,0.00,Wunderground v.1.15,2013-07-23 20:30:00,
2013-07-23 13:40:00,96.1,57.7,29.66,NW,304,6.0,6.0,28,0.00,,,0.00,Wunderground v.1.15,2013-07-23 20:40:00,
2013-07-23 13:45:00,96.6,58.2,29.64,North,350,5.0,11.0,28,0.00,,,0.00,Wunderground v.1.15,2013-07-23 20:45:00,
2013-07-23 13:55:00,95.1,57.8,29.64,NNW,335,7.0,7.0,29,0.00,,,0.00,Wunderground v.1.15,2013-07-23 20:55:00,
2013-07-23 14:05:00,96.1,59.7,29.64,NW,306,5.0,13.0,30,0.00,,,0.00,Wunderground v.1.15,2013-07-23 21:05:00,
2013-07-23 14:15:00,97.3,57.7,29.63,North,353,5.0,13.0,27,0.00,,,0.00,Wunderground v.1.15,2013-07-23 21:15:00,
2013-07-23 14:20:00,97.3,59.7,29.63,North,354,6.0,6.0,29,0.00,,,0.00,Wunderground v.1.15,2013-07-23 21:20:00,
2013-07-23 14:30:00,96.8,58.3,29.62,WNW,302,6.0,13.0,28,0.00,,,0.00,Wunderground v.1.15,2013-07-23 21:30:00,
2013-07-23 14:40:00,97.1,58.6,29.62,North,359,8.0,8.0,28,0.00,,,0.00,Wunderground v.1.15,2013-07-23 21:40:00,
2013-07-23 14:50:00,96.8,59.3,29.62,NNW,330,8.0,8.0,29,0.00,,,0.00,Wunderground v.1.15,2013-07-23 21:50:00,
2013-07-23 14:55:00,96.8,57.3,29.62,NNW,336,6.0,13.0,27,0.00,,,0.00,Wunderground v.1.15,2013-07-23 21:55:00,
2013-07-23 15:05:00,97.5,58.9,29.61,NNW,333,7.0,13.0,28,0.00,,,0.00,Wunderground v.1.15,2013-07-23 22:05:00,
2013-07-23 15:15:00,97.1,58.6,29.61,NNW,339,6.0,13.0,28,0.00,,,0.00,Wunderground v.1.15,2013-07-23 22:15:00,
2013-07-23 15:25:00,96.8,57.3,29.61,North,359,8.0,13.0,27,0.00,,,0.00,Wunderground v.1.15,2013-07-23 22:25:00,
2013-07-23 15:35:00,96.3,56.9,29.60,NW,316,6.0,13.0,27,0.00,,,0.00,Wunderground v.1.15,2013-07-23 22:35:00,
2013-07-23 15:40:00,96.8,57.3,29.60,NW,325,7.0,7.0,27,0.00,,,0.00,Wunderground v.1.15,2013-07-23 22:40:00,
2013-07-23 15:50:00,97.8,58.2,29.59,WNW,292,6.0,6.0,27,0.00,,,0.00,Wunderground v.1.15,2013-07-23 22:50:00,
2013-07-23 15:55:00,97.3,58.7,29.59,NNW,333,6.0,8.0,28,0.00,,,0.00,Wunderground v.1.15,2013-07-23 22:55:00,
2013-07-23 16:05:00,96.1,57.7,29.59,NNW,343,7.0,13.0,28,0.00,,,0.00,Wunderground v.1.15,2013-07-23 23:05:00,
2013-07-23 16:15:00,97.3,58.7,29.59,North,352,5.0,13.0,28,0.00,,,0.00,Wunderground v.1.15,2013-07-23 23:15:00,
2013-07-23 16:20:00,97.1,58.6,29.59,NW,323,7.0,7.0,28,0.00,,,0.00,Wunderground v.1.15,2013-07-23 23:20:00,
2013-07-23 16:34:00,97.1,57.6,29.59,North,8,7.0,13.0,27,0.00,,,0.00,Wunderground v.1.15,2013-07-23 23:34:00,
2013-07-23 16:40:00,97.1,58.6,29.59,NW,315,8.0,13.0,28,0.00,,,0.00,Wunderground v.1.15,2013-07-23 23:40:00,
2013-07-23 16:45:00,97.3,58.7,29.58,North,359,7.0,13.0,28,0.00,,,0.00,Wunderground v.1.15,2013-07-23 23:45:00,
2013-07-23 16:55:00,96.1,57.7,29.58,NNW,337,8.0,8.0,28,0.00,,,0.00,Wunderground v.1.15,2013-07-23 23:55:00,
2013-07-23 17:05:00,96.6,58.2,29.58,WNW,295,7.0,13.0,28,0.00,,,0.00,Wunderground v.1.15,2013-07-24 00:05:00,
2013-07-23 17:15:00,96.1,57.7,29.58,WNW,296,8.0,13.0,28,0.00,,,0.00,Wunderground v.1.15,2013-07-24 00:15:00,
2013-07-23 17:20:00,96.1,56.7,29.58,North,357,8.0,13.0,27,0.00,,,0.00,Wunderground v.1.15,2013-07-24 00:20:00,
2013-07-23 17:30:00,95.6,57.3,29.58,North,349,9.0,9.0,28,0.00,,,0.00,Wunderground v.1.15,2013-07-24 00:30:00,
2013-07-23 17:35:00,95.4,58.1,29.58,NW,305,8.0,13.0,29,0.00,,,0.00,Wunderground v.1.15,2013-07-24 00:35:00,
2013-07-23 17:45:00,95.4,58.1,29.58,NW,326,8.0,13.0,29,0.00,,,0.00,Wunderground v.1.15,2013-07-24 00:45:00,
2013-07-23 17:55:00,95.1,56.9,29.58,NW,305,6.0,13.0,28,0.00,,,0.00,Wunderground v.1.15,2013-07-24 00:55:00,
2013-07-23 18:00:00,95.4,57.1,29.57,NW,309,6.0,6.0,28,0.00,,,0.00,Wunderground v.1.15,2013-07-24 01:00:00,
2013-07-23 18:10:00,94.9,56.7,29.57,NNW,340,5.0,13.0,28,0.00,,,0.00,Wunderground v.1.15,2013-07-24 01:10:00,
2013-07-23 18:20:00,94.5,58.3,29.57,NNW,335,7.0,7.0,30,0.00,,,0.00,Wunderground v.1.15,2013-07-24 01:20:00,
2013-07-23 18:30:00,93.8,57.7,29.58,NNW,333,8.0,8.0,30,0.00,,,0.00,Wunderground v.1.15,2013-07-24 01:30:00,
2013-07-23 18:40:00,93.6,58.4,29.58,NNW,333,5.0,5.0,31,0.00,,,0.00,Wunderground v.1.15,2013-07-24 01:40:00,
2013-07-23 18:45:00,93.4,58.2,29.58,NW,326,6.0,7.0,31,0.00,,,0.00,Wunderground v.1.15,2013-07-24 01:45:00,
2013-07-23 18:55:00,92.9,58.7,29.58,NNW,344,6.0,13.0,32,0.00,,,0.00,Wunderground v.1.15,2013-07-24 01:55:00,
2013-07-23 19:05:00,92.5,59.2,29.59,NNW,332,5.0,13.0,33,0.00,,,0.00,Wunderground v.1.15,2013-07-24 02:05:00,
2013-07-23 19:15:00,92.1,57.1,29.58,North,354,5.0,13.0,31,0.00,,,0.00,Wunderground v.1.15,2013-07-24 02:15:00,
2013-07-23 19:25:00,91.8,59.4,29.58,NW,320,5.0,13.0,34,0.00,,,0.00,Wunderground v.1.15,2013-07-24 02:25:00,
2013-07-23 19:34:00,91.4,58.3,29.58,NW,305,4.0,13.0,33,0.00,,,0.00,Wunderground v.1.15,2013-07-24 02:34:00,
2013-07-23 19:40:00,91.4,59.1,29.58,NNW,332,5.0,13.0,34,0.00,,,0.00,Wunderground v.1.15,2013-07-24 02:40:00,
2013-07-23 19:54:00,90.7,58.5,29.59,North,357,4.0,13.0,34,0.00,,,0.00,Wunderground v.1.15,2013-07-24 02:54:00,
2013-07-23 20:00:00,90.7,58.5,29.59,North,357,5.0,13.0,34,0.00,,,0.00,Wunderground v.1.15,2013-07-24 03:00:00,
2013-07-23 20:15:00,90.3,58.9,29.59,NNW,333,3.0,13.0,35,0.00,,,0.00,Wunderground v.1.15,2013-07-24 03:15:00,
2013-07-23 20:25:00,90.1,58.0,29.59,NNW,344,3.0,13.0,34,0.00,,,0.00,Wunderground v.1.15,2013-07-24 03:25:00,
2013-07-23 20:34:00,89.9,58.6,29.59,NNW,332,2.0,13.0,35,0.00,,,0.00,Wunderground v.1.15,2013-07-24 03:34:00,
2013-07-23 20:40:00,89.7,58.4,29.59,NW,325,2.0,13.0,35,0.00,,,0.00,Wunderground v.1.15,2013-07-24 03:40:00,
2013-07-23 20:45:00,89.5,58.2,29.60,NW,323,2.0,13.0,35,0.00,,,0.00,Wunderground v.1.15,2013-07-24 03:45:00,
2013-07-23 20:55:00,89.3,58.8,29.60,NW,308,2.0,4.0,36,0.00,,,0.00,Wunderground v.1.15,2013-07-24 03:55:00,
2013-07-23 21:05:00,89.0,58.6,29.62,NW,308,1.0,13.0,36,0.00,,,0.00,Wunderground v.1.15,2013-07-24 04:05:00,
2013-07-23 21:09:00,88.8,59.2,29.62,NW,308,1.0,13.0,37,0.00,,,0.00,Wunderground v.1.15,2013-07-24 04:09:00,
2013-07-23 21:15:00,88.6,59.0,29.61,NW,308,1.0,13.0,37,0.00,,,0.00,Wunderground v.1.15,2013-07-24 04:15:00,
2013-07-23 21:20:00,88.4,59.6,29.61,NW,308,0.0,13.0,38,0.00,,,0.00,Wunderground v.1.15,2013-07-24 04:20:00,
2013-07-23 21:30:00,88.0,59.2,29.62,NW,308,0.0,13.0,38,0.00,,,0.00,Wunderground v.1.15,2013-07-24 04:30:00,
2013-07-23 21:34:00,87.6,59.6,29.62,NW,308,0.0,13.0,39,0.00,,,0.00,Wunderground v.1.15,2013-07-24 04:34:00,
2013-07-23 21:40:00,87.4,59.4,29.62,NW,308,0.0,13.0,39,0.00,,,0.00,Wunderground v.1.15,2013-07-24 04:40:00,
2013-07-23 21:50:00,87.2,59.2,29.61,NW,308,0.0,13.0,39,0.00,,,0.00,Wunderground v.1.15,2013-07-24 04:50:00,
2013-07-23 21:55:00,87.0,59.8,29.61,NW,308,0.0,13.0,40,0.00,,,0.00,Wunderground v.1.15,2013-07-24 04:55:00,
2013-07-23 22:05:00,86.7,59.5,29.62,NW,308,0.0,13.0,40,0.00,,,0.00,Wunderground v.1.15,2013-07-24 05:05:00,
2013-07-23 22:15:00,86.7,59.5,29.63,NW,306,0.0,13.0,40,0.00,,,0.00,Wunderground v.1.15,2013-07-24 05:15:00,
2013-07-23 22:25:00,86.7,59.5,29.63,NW,306,0.0,13.0,40,0.00,,,0.00,Wunderground v.1.15,2013-07-24 05:25:00,
2013-07-23 22:34:00,87.0,59.0,29.63,NW,306,1.0,13.0,39,0.00,,,0.00,Wunderground v.1.15,2013-07-24 05:34:00,
2013-07-23 22:40:00,87.0,59.0,29.63,NW,306,1.0,1.0,39,0.00,,,0.00,Wunderground v.1.15,2013-07-24 05:40:00,
2013-07-23 22:50:00,87.0,59.0,29.63,NW,306,1.0,1.0,39,0.00,,,0.00,Wunderground v.1.15,2013-07-24 05:50:00,
2013-07-23 23:00:00,87.0,59.0,29.63,NW,306,1.0,1.0,39,0.00,,,0.00,Wunderground v.1.15,2013-07-24 06:00:00,
2013-07-23 23:10:00,86.7,58.8,29.63,NW,306,1.0,13.0,39,0.00,,,0.00,Wunderground v.1.15,2013-07-24 06:10:00,
2013-07-23 23:15:00,86.5,59.3,29.62,NW,306,1.0,13.0,40,0.00,,,0.00,Wunderground v.1.15,2013-07-24 06:15:00,
2013-07-23 23:25:00,86.1,59.0,29.62,NW,306,0.0,13.0,40,0.00,,,0.00,Wunderground v.1.15,2013-07-24 06:25:00,
2013-07-23 23:35:00,85.9,59.5,29.62,NW,305,0.0,13.0,41,0.00,,,0.00,Wunderground v.1.15,2013-07-24 06:35:00,
2013-07-23 23:40:00,85.7,59.3,29.62,WNW,302,0.0,13.0,41,0.00,,,0.00,Wunderground v.1.15,2013-07-24 06:40:00,
2013-07-23 23:50:00,85.5,59.1,29.62,WNW,294,0.0,13.0,41,0.00,,,0.00,Wunderground v.1.15,2013-07-24 06:50:00,